Time;durP1;ratioP1;P1;durP2;ratioP2;P2;SDS_P1;SDS_P2;PMS_P1;PMS_P2;Temp;Humidity;BMP_temperature;BMP_pressure;BME280_temperature;BME280_humidity;BME280_pressure;Samples;Min_cycle;Max_cycle;Signal;HPM_P1;HPM_P2
2023/06/13 00:01:00;;;;;;;2.67;1.38;;;;;;;16.14;65.23;95955.94;5059819;28;20568;-70
2023/06/13 00:03:29;;;;;;;3.75;1.50;;;;;;;15.97;64.48;95956.69;5059887;28;20197;-70
2023/06/13 00:05:56;;;;;;;2.47;1.48;;;;;;;15.96;65.58;95953.25;5058943;28;20206;-68
2023/06/13 00:08:24;;;;;;;1.50;1.40;;;;;;;15.94;64.96;95952.63;5059764;28;20211;-65
2023/06/13 00:10:51;;;;;;;2.63;1.35;;;;;;;15.90;65.05;95947.97;5058972;28;20342;-68
2023/06/13 00:13:18;;;;;;;2.17;1.27;;;;;;;15.97;65.85;95952.22;5059191;28;21017;-67
2023/06/13 00:15:50;;;;;;;2.25;1.25;;;;;;;15.92;65.89;95948.56;5060161;28;20200;-65
2023/06/13 00:18:17;;;;;;;4.10;1.63;;;;;;;15.77;66.57;95948.09;5059439;28;20204;-70
2023/06/13 00:20:44;;;;;;;2.97;1.30;;;;;;;15.56;67.71;95950.25;5058604;28;20248;-69
2023/06/13 00:23:10;;;;;;;2.45;1.20;;;;;;;15.68;68.09;95944.06;5059016;28;20673;-67
2023/06/13 00:25:37;;;;;;;1.27;0.93;;;;;;;15.54;67.33;95939.88;5060090;28;20201;-68
2023/06/13 00:28:03;;;;;;;3.53;1.33;;;;;;;15.34;68.88;95946.31;5058266;28;20216;-64
2023/06/13 00:30:31;;;;;;;2.10;0.90;;;;;;;15.34;69.02;95941.00;5059097;28;20221;-64
2023/06/13 00:32:59;;;;;;;2.35;1.27;;;;;;;15.38;68.96;95939.56;5058867;28;20231;-68
2023/06/13 00:35:26;;;;;;;2.25;1.25;;;;;;;15.23;68.59;95935.56;5058550;28;20718;-66
2023/06/13 00:37:54;;;;;;;2.05;1.20;;;;;;;15.20;69.07;95935.94;5058530;28;20588;-64
2023/06/13 00:40:21;;;;;;;4.00;1.50;;;;;;;15.19;68.49;95934.31;5058889;28;20224;-66
2023/06/13 00:42:48;;;;;;;4.13;1.48;;;;;;;15.24;69.02;95927.38;5059158;28;20201;-68
2023/06/13 00:45:22;;;;;;;3.42;1.98;;;;;;;15.16;70.61;95929.41;5058990;28;20208;-64
2023/06/13 00:47:54;;;;;;;2.08;1.15;;;;;;;15.32;69.93;95922.66;5058941;28;20207;-68
2023/06/13 00:50:27;;;;;;;2.05;1.45;;;;;;;15.42;70.68;95919.50;5058804;28;20228;-69
2023/06/13 00:52:54;;;;;;;1.83;1.25;;;;;;;15.44;69.95;95928.06;5058515;28;20778;-65
2023/06/13 00:55:22;;;;;;;2.10;1.33;;;;;;;15.51;69.38;95928.84;5058412;28;20200;-70
2023/06/13 00:57:48;;;;;;;2.35;1.55;;;;;;;15.43;70.09;95923.78;5058043;28;20652;-70
2023/06/13 01:00:15;;;;;;;1.83;1.30;;;;;;;15.34;70.09;95922.44;5058445;28;20456;-70
2023/06/13 01:02:45;;;;;;;3.88;1.90;;;;;;;15.35;69.46;95919.56;5058922;28;20201;-65
2023/06/13 01:05:11;;;;;;;1.63;1.45;;;;;;;15.31;70.14;95922.81;5057660;28;20200;-67
2023/06/13 01:07:41;;;;;;;2.50;1.42;;;;;;;15.00;70.63;95925.41;5057949;28;20251;-70
2023/06/13 01:10:10;;;;;;;2.40;1.73;;;;;;;15.03;71.37;95921.53;5058346;28;20225;-71
2023/06/13 01:12:45;;;;;;;2.70;1.38;;;;;;;15.00;70.76;95924.63;5058313;28;20731;-70
2023/06/13 01:15:17;;;;;;;2.78;1.42;;;;;;;15.10;71.30;95919.69;5058089;28;20957;-65
2023/06/13 01:17:49;;;;;;;1.70;1.08;;;;;;;15.07;71.30;95928.88;5057819;28;20215;-67
2023/06/13 01:20:18;;;;;;;3.42;1.60;;;;;;;14.87;71.88;95925.47;5058417;28;20297;-70
2023/06/13 01:22:56;;;;;;;1.23;1.00;;;;;;;15.06;71.50;95924.59;5057870;28;20233;-67
2023/06/13 01:25:37;;;;;;;3.75;1.40;;;;;;;14.93;71.96;95911.38;5058094;28;20270;-69
2023/06/13 01:28:06;;;;;;;1.77;0.93;;;;;;;14.86;72.34;95915.88;5058167;28;20254;-65
2023/06/13 01:30:34;;;;;;;2.65;1.63;;;;;;;14.47;73.02;95909.91;5057530;28;20841;-69
2023/06/13 01:33:02;;;;;;;3.28;1.92;;;;;;;14.18;75.13;95915.69;5057797;28;20243;-66
2023/06/13 01:35:29;;;;;;;2.35;1.30;;;;;;;14.09;75.49;95914.28;5058340;28;20227;-70
2023/06/13 01:37:56;;;;;;;2.28;1.55;;;;;;;14.07;76.28;95910.19;5057818;28;20218;-69
2023/06/13 01:40:22;;;;;;;3.13;1.50;;;;;;;13.94;76.13;95899.59;5057511;28;20813;-70
2023/06/13 01:42:49;;;;;;;1.25;1.05;;;;;;;13.69;78.22;95903.88;5058498;28;20192;-67
2023/06/13 01:45:17;;;;;;;4.68;1.13;;;;;;;13.59;79.53;95903.50;5058016;28;21243;-67
2023/06/13 01:47:51;;;;;;;2.67;1.50;;;;;;;13.41;80.88;95890.00;5057255;28;20208;-70
2023/06/13 01:50:26;;;;;;;3.10;1.25;;;;;;;13.39;81.73;95894.72;5057821;28;20224;-65
2023/06/13 01:53:04;;;;;;;2.88;2.10;;;;;;;13.46;81.55;95892.88;5057471;28;20248;-69
2023/06/13 01:55:36;;;;;;;1.65;1.08;;;;;;;13.48;81.76;95882.09;5057371;28;20200;-71
2023/06/13 01:58:06;;;;;;;1.67;1.00;;;;;;;13.48;81.58;95884.75;5057103;28;20207;-68
2023/06/13 02:00:35;;;;;;;2.95;1.67;;;;;;;13.38;81.56;95880.84;5057595;28;20224;-69
2023/06/13 02:03:04;;;;;;;1.95;1.10;;;;;;;13.36;81.54;95882.91;5056613;28;20203;-70
2023/06/13 02:05:31;;;;;;;3.53;2.22;;;;;;;13.22;82.74;95881.25;5057642;28;20205;-66
2023/06/13 02:07:57;;;;;;;2.00;1.30;;;;;;;13.11;83.09;95881.84;5056545;28;20204;-68
2023/06/13 02:10:24;;;;;;;2.20;1.40;;;;;;;13.24;83.06;95884.50;5057227;28;20231;-66
2023/06/13 02:12:52;;;;;;;1.35;1.02;;;;;;;13.25;82.11;95883.50;5057488;28;20224;-66
2023/06/13 02:15:18;;;;;;;2.55;1.30;;;;;;;13.34;82.23;95882.28;5057521;28;20196;-69
2023/06/13 02:17:47;;;;;;;2.15;1.35;;;;;;;13.42;81.57;95877.63;5056771;28;20208;-67
2023/06/13 02:20:14;;;;;;;1.63;0.98;;;;;;;13.45;81.09;95877.19;5056955;28;20233;-68
2023/06/13 02:22:41;;;;;;;2.15;1.38;;;;;;;13.41;81.17;95876.78;5057354;28;20285;-69
2023/06/13 02:25:08;;;;;;;4.13;1.17;;;;;;;13.31;81.75;95874.75;5057357;28;20204;-69
2023/06/13 02:27:35;;;;;;;2.05;1.20;;;;;;;13.07;82.04;95883.25;5056511;28;20205;-68
2023/06/13 02:30:03;;;;;;;1.63;1.10;;;;;;;13.09;82.47;95881.25;5056802;28;20228;-65
2023/06/13 02:32:30;;;;;;;3.83;1.27;;;;;;;12.96;83.30;95879.38;5057289;28;20612;-70
2023/06/13 02:34:57;;;;;;;2.13;1.27;;;;;;;13.04;82.43;95878.38;5056480;28;20208;-69
2023/06/13 02:37:24;;;;;;;1.08;0.82;;;;;;;13.11;81.70;95874.72;5056689;28;20551;-67
2023/06/13 02:39:50;;;;;;;1.98;1.35;;;;;;;13.33;81.31;95872.69;5056947;28;20231;-68
2023/06/13 02:42:17;;;;;;;3.05;1.63;;;;;;;13.14;81.51;95871.69;5056638;28;20234;-70
2023/06/13 02:44:44;;;;;;;2.75;1.45;;;;;;;13.20;80.95;95880.63;5052739;28;20205;-69
2023/06/13 02:47:10;;;;;;;1.98;1.05;;;;;;;13.12;81.66;95875.53;5057735;28;20207;-68
2023/06/13 02:49:37;;;;;;;2.60;1.88;;;;;;;12.97;81.73;95878.38;5056464;28;20989;-69
2023/06/13 02:52:05;;;;;;;3.65;1.30;;;;;;;13.09;81.95;95874.09;5056144;28;20913;-67
2023/06/13 02:54:32;;;;;;;1.52;1.15;;;;;;;13.00;82.33;95880.59;5056624;28;20227;-65
2023/06/13 02:56:58;;;;;;;2.22;1.33;;;;;;;12.97;82.50;95874.88;5056860;28;20208;-71
2023/06/13 02:59:26;;;;;;;2.25;0.80;;;;;;;12.82;82.04;95876.88;5055130;28;20200;-69
2023/06/13 03:01:52;;;;;;;1.80;1.23;;;;;;;13.02;82.01;95869.81;5056099;28;20237;-64
2023/06/13 03:04:19;;;;;;;2.10;1.25;;;;;;;13.04;81.33;95873.09;5056933;28;20196;-70
2023/06/13 03:06:46;;;;;;;4.05;1.55;;;;;;;13.24;80.31;95873.91;5056469;28;20204;-70
2023/06/13 03:09:14;;;;;;;2.22;1.20;;;;;;;13.14;80.71;95873.53;5055413;28;20201;-70
2023/06/13 03:11:40;;;;;;;8.55;1.73;;;;;;;13.11;80.23;95873.91;5056517;28;20224;-69
2023/06/13 03:14:07;;;;;;;2.00;1.75;;;;;;;12.98;80.90;95868.59;5056269;28;20243;-68
2023/06/13 03:16:35;;;;;;;1.58;1.35;;;;;;;12.95;81.94;95874.28;5055827;28;20713;-66
2023/06/13 03:19:02;;;;;;;1.38;1.00;;;;;;;12.90;81.33;95871.44;5055621;28;20219;-70
2023/06/13 03:21:30;;;;;;;1.70;1.10;;;;;;;12.83;82.14;95873.22;5056058;28;20270;-67
2023/06/13 03:23:56;;;;;;;1.40;1.30;;;;;;;12.81;82.89;95877.88;5055673;28;20799;-69
2023/06/13 03:26:25;;;;;;;2.72;2.00;;;;;;;13.00;81.69;95882.44;5055852;28;20287;-67
2023/06/13 03:28:52;;;;;;;2.08;1.27;;;;;;;13.02;80.99;95883.88;5055576;28;20211;-70
2023/06/13 03:31:19;;;;;;;2.90;1.67;;;;;;;13.14;80.24;95884.09;5055831;28;20220;-67
2023/06/13 03:33:45;;;;;;;1.92;1.35;;;;;;;13.25;79.82;95886.13;5055690;28;20389;-70
2023/06/13 03:36:12;;;;;;;1.40;1.02;;;;;;;13.21;79.88;95887.56;5056158;28;20200;-69
2023/06/13 03:38:38;;;;;;;1.40;1.00;;;;;;;13.27;79.22;95892.06;5055044;28;20216;-68
2023/06/13 03:41:05;;;;;;;1.17;0.93;;;;;;;13.33;78.60;95893.88;5055613;28;20220;-68
2023/06/13 03:43:33;;;;;;;3.33;1.70;;;;;;;13.53;78.21;95891.06;5056172;28;20197;-70
2023/06/13 03:46:00;;;;;;;2.83;1.80;;;;;;;13.51;77.89;95893.09;5055934;28;20223;-68
2023/06/13 03:48:26;;;;;;;1.83;1.10;;;;;;;13.39;78.17;95884.13;5055515;28;20307;-69
2023/06/13 03:50:53;;;;;;;1.55;1.08;;;;;;;13.21;78.63;95892.84;5056371;28;20228;-68
2023/06/13 03:53:19;;;;;;;2.63;1.58;;;;;;;13.35;78.48;95886.56;5055229;28;20227;-69
2023/06/13 03:55:46;;;;;;;2.55;1.55;;;;;;;13.25;78.38;95881.69;5055330;28;20204;-69
2023/06/13 03:58:14;;;;;;;1.92;1.38;;;;;;;13.27;78.33;95884.13;5055813;28;20295;-71
2023/06/13 04:00:44;;;;;;;2.88;1.48;;;;;;;13.30;78.55;95892.47;5056406;28;20256;-69
2023/06/13 04:03:11;;;;;;;1.23;1.15;;;;;;;13.28;78.90;95886.56;5055775;28;20200;-69
2023/06/13 04:05:37;;;;;;;1.95;1.60;;;;;;;13.41;78.68;95891.84;5055579;28;20299;-69
2023/06/13 04:08:07;;;;;;;2.05;1.30;;;;;;;13.50;78.66;95886.19;5055036;28;20211;-69
2023/06/13 04:10:33;;;;;;;1.00;0.80;;;;;;;13.64;78.40;95893.06;5055403;28;20228;-70
2023/06/13 04:13:00;;;;;;;2.10;1.15;;;;;;;13.51;78.02;95887.78;5055427;28;20208;-66
2023/06/13 04:15:26;;;;;;;1.60;1.08;;;;;;;13.51;79.23;95887.78;5055567;28;20758;-68
2023/06/13 04:17:54;;;;;;;1.15;1.05;;;;;;;13.77;78.69;95895.75;5055256;28;20200;-71
2023/06/13 04:20:24;;;;;;;1.80;1.17;;;;;;;13.54;80.10;95892.69;5054924;28;20228;-67
2023/06/13 04:22:52;;;;;;;1.77;1.15;;;;;;;13.60;78.94;95897.16;5055632;28;20208;-69
2023/06/13 04:25:18;;;;;;;3.00;1.17;;;;;;;13.54;79.80;95892.69;5055522;28;20201;-67
2023/06/13 04:27:45;;;;;;;2.40;1.25;;;;;;;13.57;79.62;95900.22;5055218;28;20287;-69
2023/06/13 04:30:12;;;;;;;2.03;1.33;;;;;;;13.61;79.11;95903.28;5054984;28;20228;-70
2023/06/13 04:32:43;;;;;;;2.08;1.30;;;;;;;13.61;79.06;95898.00;5055655;28;20209;-71
2023/06/13 04:35:15;;;;;;;2.50;1.48;;;;;;;13.76;79.34;95901.22;5054829;28;20221;-70
2023/06/13 04:37:43;;;;;;;2.22;1.50;;;;;;;13.83;78.89;95910.81;5054758;28;20205;-69
2023/06/13 04:40:10;;;;;;;3.85;1.52;;;;;;;14.05;78.64;95902.44;5056599;28;20282;-69
2023/06/13 04:42:37;;;;;;;2.55;1.35;;;;;;;14.20;78.43;95904.88;5059505;28;20223;-68
2023/06/13 04:45:05;;;;;;;3.92;1.83;;;;;;;14.07;78.65;95907.53;5058851;28;20201;-68
2023/06/13 04:47:32;;;;;;;1.85;1.23;;;;;;;14.21;78.92;95907.31;5058441;28;20201;-67
2023/06/13 04:49:59;;;;;;;2.28;1.45;;;;;;;14.40;79.18;95910.97;5058574;28;20362;-66
2023/06/13 04:52:29;;;;;;;2.78;1.50;;;;;;;14.28;77.35;95904.66;5059147;28;21315;-66
2023/06/13 04:54:57;;;;;;;3.25;1.42;;;;;;;14.41;77.99;95912.56;5059163;28;20267;-66
2023/06/13 04:57:23;;;;;;;1.30;1.13;;;;;;;14.47;78.98;95906.44;5058597;28;20204;-70
2023/06/13 04:59:50;;;;;;;1.58;1.08;;;;;;;14.54;77.03;95901.97;5058146;28;20208;-70
2023/06/13 05:02:16;;;;;;;1.33;0.95;;;;;;;14.64;76.92;95903.94;5058388;28;20795;-66
2023/06/13 05:04:44;;;;;;;1.48;1.13;;;;;;;14.60;74.08;95896.63;5058946;28;20197;-69
2023/06/13 05:07:15;;;;;;;1.15;1.00;;;;;;;14.65;73.68;95900.28;5058173;28;20235;-66
2023/06/13 05:09:43;;;;;;;0.93;0.82;;;;;;;14.88;74.73;95900.59;5057937;28;20200;-67
2023/06/13 05:12:10;;;;;;;3.38;1.17;;;;;;;14.71;72.53;95904.75;5059076;28;20204;-66
2023/06/13 05:14:36;;;;;;;2.03;1.10;;;;;;;14.69;72.37;95908.63;5058674;28;20224;-69
2023/06/13 05:17:05;;;;;;;2.67;1.60;;;;;;;14.91;71.71;95920.56;5058190;28;20204;-66
2023/06/13 05:19:31;;;;;;;2.03;1.38;;;;;;;14.83;71.65;95916.31;5057453;28;20692;-65
2023/06/13 05:22:00;;;;;;;3.03;1.65;;;;;;;14.97;69.28;95920.53;5058152;28;20216;-64
2023/06/13 05:24:26;;;;;;;2.67;1.40;;;;;;;14.90;69.84;95922.41;5058165;28;20201;-68
2023/06/13 05:26:54;;;;;;;2.97;1.70;;;;;;;15.08;71.28;95925.16;5058386;28;20231;-70
2023/06/13 05:29:20;;;;;;;3.05;1.45;;;;;;;15.14;69.84;95921.69;5057330;28;20196;-70
2023/06/13 05:31:47;;;;;;;2.30;1.30;;;;;;;15.29;71.50;95915.09;5058418;28;20235;-69
2023/06/13 05:34:13;;;;;;;1.70;1.23;;;;;;;15.51;71.30;95920.88;5057403;28;20224;-67
2023/06/13 05:36:40;;;;;;;1.50;1.08;;;;;;;15.50;70.48;95916.59;5058282;28;20207;-68
2023/06/13 05:39:07;;;;;;;2.33;1.27;;;;;;;15.68;68.84;95921.97;5057356;28;21055;-67
2023/06/13 05:41:34;;;;;;;1.40;1.17;;;;;;;15.79;69.66;95916.78;5058059;28;20331;-67
2023/06/13 05:44:02;;;;;;;2.70;1.48;;;;;;;15.87;69.39;95909.38;5057888;28;20209;-67
2023/06/13 05:46:29;;;;;;;1.88;1.00;;;;;;;15.56;65.19;95911.22;5058152;28;20208;-67
2023/06/13 05:48:55;;;;;;;1.80;1.05;;;;;;;15.77;64.16;95902.91;5057338;28;20215;-68
2023/06/13 05:51:22;;;;;;;2.00;1.15;;;;;;;15.79;63.85;95908.00;5057299;28;20231;-68
2023/06/13 05:53:48;;;;;;;2.60;0.93;;;;;;;15.87;62.07;95909.38;5057400;28;20708;-67
2023/06/13 05:56:15;;;;;;;1.10;1.00;;;;;;;16.01;61.26;95910.88;5056874;28;20231;-68
2023/06/13 05:58:41;;;;;;;1.95;1.13;;;;;;;16.00;59.13;95898.63;5056813;28;20403;-68
2023/06/13 06:01:10;;;;;;;2.35;1.00;;;;;;;15.99;59.69;95896.97;5052404;28;20236;-68
2023/06/13 06:03:36;;;;;;;1.08;0.93;;;;;;;15.96;58.92;95900.09;5054489;28;20261;-68
2023/06/13 06:06:03;;;;;;;4.22;0.95;;;;;;;16.18;60.08;95909.28;5055513;28;20230;-66
2023/06/13 06:08:30;;;;;;;0.73;0.73;;;;;;;16.23;57.36;95897.97;5056496;28;20204;-68
2023/06/13 06:10:56;;;;;;;1.02;0.68;;;;;;;16.41;57.24;95911.31;5056207;28;20712;-68
2023/06/13 06:13:23;;;;;;;1.55;1.05;;;;;;;16.53;57.72;95905.91;5055682;28;20224;-66
2023/06/13 06:15:50;;;;;;;0.65;0.60;;;;;;;16.47;55.29;95902.47;5056465;28;20239;-68
2023/06/13 06:18:20;;;;;;;0.80;0.77;;;;;;;16.54;53.79;95906.69;5056524;28;20560;-68
2023/06/13 06:20:47;;;;;;;2.13;0.82;;;;;;;16.57;55.06;95906.25;5056456;28;20228;-67
2023/06/13 06:23:14;;;;;;;1.90;0.93;;;;;;;16.57;54.61;95900.91;5056679;28;20707;-68
2023/06/13 06:25:41;;;;;;;1.85;1.00;;;;;;;16.63;54.88;95900.03;5056603;28;20630;-67
2023/06/13 06:28:08;;;;;;;1.25;0.88;;;;;;;16.86;54.60;95906.31;5055311;28;21105;-68
2023/06/13 06:30:35;;;;;;;1.27;0.88;;;;;;;16.73;53.78;95908.31;5054378;28;20307;-68
2023/06/13 06:33:02;;;;;;;2.08;1.17;;;;;;;16.92;54.35;95904.63;5054975;28;20248;-72
2023/06/13 06:35:31;;;;;;;1.17;0.88;;;;;;;17.05;53.59;95909.78;5056940;28;20229;-67
2023/06/13 06:37:59;;;;;;;3.33;2.17;;;;;;;17.04;52.59;95906.28;5055533;28;20583;-71
2023/06/13 06:40:25;;;;;;;2.20;1.20;;;;;;;17.00;52.77;95913.09;5056049;28;20282;-67
2023/06/13 06:42:51;;;;;;;1.60;1.38;;;;;;;17.08;52.65;95916.28;5056416;28;20208;-67
2023/06/13 06:45:18;;;;;;;2.65;1.20;;;;;;;17.22;52.00;95911.56;5056631;28;20205;-69
2023/06/13 06:47:44;;;;;;;2.95;0.85;;;;;;;17.33;50.71;95922.31;5055897;28;20201;-68
2023/06/13 06:50:11;;;;;;;1.45;1.02;;;;;;;17.25;51.10;95913.84;5054955;28;20216;-67
2023/06/13 06:52:39;;;;;;;2.60;0.80;;;;;;;17.63;51.79;95909.78;5055890;28;20253;-70
2023/06/13 06:55:06;;;;;;;1.02;0.93;;;;;;;17.62;51.11;95913.50;5055905;28;20217;-67
2023/06/13 06:57:32;;;;;;;1.35;0.90;;;;;;;17.57;49.71;95909.91;5055522;28;20201;-71
2023/06/13 06:59:58;;;;;;;1.25;1.02;;;;;;;17.74;51.21;95895.66;5054722;28;20224;-69
2023/06/13 07:02:25;;;;;;;1.10;1.00;;;;;;;17.72;50.95;95903.09;5054914;28;20200;-71
2023/06/13 07:04:52;;;;;;;2.10;0.88;;;;;;;17.83;51.00;95908.47;5056244;28;20192;-69
2023/06/13 07:07:18;;;;;;;2.42;1.30;;;;;;;18.19;50.92;95894.13;5054365;28;20657;-69
2023/06/13 07:09:46;;;;;;;3.35;1.00;;;;;;;18.17;48.79;95894.38;5055490;28;20262;-70
2023/06/13 07:12:12;;;;;;;1.05;0.85;;;;;;;18.13;49.61;95900.38;5056336;28;20212;-67
2023/06/13 07:14:39;;;;;;;1.02;0.85;;;;;;;18.12;48.53;95898.75;5054905;28;20231;-71
2023/06/13 07:17:06;;;;;;;1.08;0.98;;;;;;;18.11;48.31;95902.44;5054997;28;20431;-68
2023/06/13 07:19:32;;;;;;;1.17;1.02;;;;;;;18.19;49.72;95900.28;5055067;28;20208;-68
2023/06/13 07:22:00;;;;;;;3.88;1.10;;;;;;;18.29;48.72;95899.69;5055667;28;20204;-69
2023/06/13 07:24:27;;;;;;;2.08;0.90;;;;;;;18.41;48.31;95909.34;5054768;28;20679;-71
2023/06/13 07:26:55;;;;;;;2.15;1.08;;;;;;;18.51;48.52;95906.91;5055460;28;20219;-67
2023/06/13 07:29:21;;;;;;;9.90;1.55;;;;;;;18.62;47.63;95906.88;5054926;28;20207;-68
2023/06/13 07:31:48;;;;;;;2.97;1.30;;;;;;;18.80;48.34;95897.91;5055059;28;20224;-68
2023/06/13 07:34:15;;;;;;;4.20;1.40;;;;;;;19.12;46.87;95894.63;5056387;28;20204;-70
2023/06/13 07:36:41;;;;;;;1.45;0.95;;;;;;;18.84;45.88;95902.56;5056522;28;20265;-70
2023/06/13 07:39:12;;;;;;;1.67;1.10;;;;;;;19.15;46.89;95896.78;5054958;28;20208;-67
2023/06/13 07:41:38;;;;;;;0.75;0.60;;;;;;;19.34;47.83;95901.72;5055202;28;20754;-67
2023/06/13 07:44:07;;;;;;;2.35;0.90;;;;;;;19.64;47.01;95892.41;5056337;28;20205;-68
2023/06/13 07:46:33;;;;;;;1.58;0.93;;;;;;;19.51;46.23;95891.88;5055787;28;20669;-68
2023/06/13 07:49:00;;;;;;;1.77;0.88;;;;;;;19.73;47.01;95888.28;5055054;28;20226;-70
2023/06/13 07:51:27;;;;;;;2.95;1.08;;;;;;;19.81;46.31;95895.88;5054016;28;20224;-69
2023/06/13 07:53:53;;;;;;;2.05;1.15;;;;;;;19.72;45.48;95888.53;5053829;28;20240;-72
2023/06/13 07:56:20;;;;;;;3.15;1.38;;;;;;;19.50;45.01;95892.13;5055472;28;20229;-70
2023/06/13 07:58:46;;;;;;;4.40;1.55;;;;;;;19.79;46.34;95887.31;5054751;28;21384;-73
2023/06/13 08:01:15;;;;;;;4.07;1.48;;;;;;;19.80;44.99;95882.75;5055228;28;20644;-72
2023/06/13 08:03:42;;;;;;;1.58;0.85;;;;;;;19.86;45.64;95873.78;5055345;28;20697;-67
2023/06/13 08:06:08;;;;;;;2.70;1.30;;;;;;;20.15;45.43;95878.84;5053799;28;20196;-70
2023/06/13 08:08:35;;;;;;;3.85;1.50;;;;;;;20.28;45.11;95871.28;5054615;28;20201;-69
2023/06/13 08:11:01;;;;;;;1.48;0.90;;;;;;;20.09;43.80;95871.78;5054355;28;20224;-67
2023/06/13 08:13:28;;;;;;;2.85;1.05;;;;;;;20.09;46.15;95873.66;5055214;28;20212;-68
2023/06/13 08:15:54;;;;;;;1.00;0.80;;;;;;;19.93;41.99;95877.94;5059128;28;20487;-64
2023/06/13 08:18:22;;;;;;;1.02;0.80;;;;;;;20.13;42.05;95880.13;5057647;28;20711;-66
2023/06/13 08:20:49;;;;;;;1.67;1.00;;;;;;;20.08;42.40;95877.38;5057613;28;20225;-66
2023/06/13 08:23:17;;;;;;;2.28;0.98;;;;;;;20.30;41.33;95881.72;5059112;28;20204;-64
2023/06/13 08:25:44;;;;;;;1.27;0.90;;;;;;;20.21;41.28;95884.03;5057809;28;20555;-68
2023/06/13 08:28:11;;;;;;;2.65;0.95;;;;;;;20.21;38.45;95877.84;5057193;28;20319;-70
2023/06/13 08:30:37;;;;;;;1.83;0.80;;;;;;;20.52;39.27;95887.94;5058970;28;20224;-66
2023/06/13 08:33:04;;;;;;;1.45;0.88;;;;;;;20.42;39.38;95885.94;5058195;28;20207;-67
2023/06/13 08:35:32;;;;;;;1.67;1.00;;;;;;;20.53;39.76;95881.53;5058997;28;20317;-67
2023/06/13 08:37:58;;;;;;;1.33;0.82;;;;;;;20.74;40.79;95881.59;5058101;28;20201;-71
2023/06/13 08:40:25;;;;;;;1.80;1.00;;;;;;;21.09;42.95;95874.81;5058515;28;20232;-69
2023/06/13 08:42:52;;;;;;;3.50;1.45;;;;;;;21.25;37.92;95881.16;5058238;28;20363;-67
2023/06/13 08:45:18;;;;;;;9.18;2.75;;;;;;;20.94;38.39;95880.00;5059556;28;20692;-68
2023/06/13 08:47:48;;;;;;;1.33;1.02;;;;;;;21.20;38.21;95884.59;5058110;28;20208;-68
2023/06/13 08:50:18;;;;;;;2.40;1.00;;;;;;;21.13;38.06;95886.66;5057712;28;20939;-69
2023/06/13 08:52:47;;;;;;;3.30;0.75;;;;;;;21.40;39.76;95890.19;5058725;28;20197;-70
2023/06/13 08:55:16;;;;;;;2.83;1.00;;;;;;;21.64;40.69;95883.50;5058591;28;20220;-69
2023/06/13 08:57:45;;;;;;;1.38;0.85;;;;;;;21.54;36.65;95886.06;5056422;28;20546;-68
2023/06/13 09:00:15;;;;;;;1.02;0.90;;;;;;;21.55;36.18;95874.28;5055932;28;20438;-71
2023/06/13 09:02:43;;;;;;;2.17;0.93;;;;;;;21.33;36.23;95884.19;5057957;28;20509;-70
2023/06/13 09:05:13;;;;;;;2.80;1.13;;;;;;;21.03;34.96;95883.84;5057577;28;20205;-71
2023/06/13 09:07:40;;;;;;;1.15;0.90;;;;;;;21.17;37.77;95881.63;5058039;28;20209;-70
2023/06/13 09:10:10;;;;;;;1.45;1.00;;;;;;;21.23;36.73;95883.28;5057664;28;20234;-71
2023/06/13 09:12:37;;;;;;;1.02;0.95;;;;;;;21.56;36.71;95878.56;5057586;28;20200;-68
2023/06/13 09:15:05;;;;;;;1.65;0.93;;;;;;;21.62;35.44;95882.94;5058222;28;20329;-72
2023/06/13 09:17:31;;;;;;;1.83;0.82;;;;;;;21.89;34.45;95875.66;5058242;28;20213;-70
2023/06/13 09:19:58;;;;;;;1.80;0.82;;;;;;;21.79;35.74;95873.72;5058000;28;20259;-69
2023/06/13 09:22:26;;;;;;;2.20;1.08;;;;;;;21.99;36.17;95865.81;5058452;28;20196;-73
2023/06/13 09:24:53;;;;;;;1.45;1.17;;;;;;;22.07;35.47;95865.34;5057637;28;20220;-68
2023/06/13 09:27:21;;;;;;;1.20;0.80;;;;;;;22.35;36.27;95862.38;5056440;28;20543;-68
2023/06/13 09:29:49;;;;;;;1.02;0.80;;;;;;;22.16;35.58;95859.25;5057295;28;20712;-71
2023/06/13 09:32:16;;;;;;;1.10;0.60;;;;;;;21.91;35.01;95860.13;5057244;28;20196;-68
2023/06/13 09:34:45;;;;;;;1.13;0.70;;;;;;;21.99;34.95;95862.34;5058110;28;20208;-67
2023/06/13 09:37:12;;;;;;;3.35;1.77;;;;;;;22.03;33.69;95855.41;5057667;28;20316;-68
2023/06/13 09:39:46;;;;;;;2.53;1.25;;;;;;;22.19;33.56;95856.06;5058024;28;20699;-70
2023/06/13 09:42:13;;;;;;;1.83;1.15;;;;;;;22.12;34.25;95858.16;5057769;28;20197;-70
2023/06/13 09:44:41;;;;;;;1.98;1.17;;;;;;;22.04;33.71;95854.34;5057578;28;20208;-70
2023/06/13 09:47:07;;;;;;;1.63;1.08;;;;;;;22.01;33.30;95857.50;5058214;28;20208;-67
2023/06/13 09:49:34;;;;;;;2.55;1.27;;;;;;;21.98;33.06;95855.34;5057117;28;20683;-68
2023/06/13 09:52:01;;;;;;;0.85;0.80;;;;;;;22.07;35.50;95852.75;5056569;28;20904;-67
2023/06/13 09:54:31;;;;;;;1.30;1.00;;;;;;;22.22;34.45;95849.38;5056508;28;20212;-66
2023/06/13 09:56:58;;;;;;;1.95;1.05;;;;;;;22.45;34.90;95847.13;5056850;28;20769;-68
2023/06/13 09:59:24;;;;;;;2.60;1.05;;;;;;;22.32;35.45;95844.09;5056608;28;20203;-69
2023/06/13 10:01:52;;;;;;;1.38;1.10;;;;;;;22.77;34.02;95859.41;5057158;28;20216;-71
2023/06/13 10:04:21;;;;;;;0.70;0.65;;;;;;;23.00;32.73;95850.97;5056563;28;20201;-70
2023/06/13 10:06:48;;;;;;;1.25;0.85;;;;;;;23.12;35.58;95861.50;5056642;28;20196;-66
2023/06/13 10:09:14;;;;;;;1.70;1.10;;;;;;;22.84;32.87;95853.81;5055900;28;20301;-67
2023/06/13 10:11:47;;;;;;;1.15;0.77;;;;;;;22.94;36.47;95851.16;5056857;28;20716;-68
2023/06/13 10:14:18;;;;;;;1.48;0.80;;;;;;;23.29;35.96;95851.31;5055930;28;20200;-68
2023/06/13 10:16:46;;;;;;;1.40;0.80;;;;;;;23.57;35.69;95835.50;5056547;28;20220;-70
2023/06/13 10:19:19;;;;;;;1.50;1.15;;;;;;;23.27;33.21;95842.69;5055186;28;20306;-72
2023/06/13 10:21:47;;;;;;;2.47;1.10;;;;;;;23.30;32.98;95837.59;5056972;28;20592;-69
2023/06/13 10:24:14;;;;;;;1.42;1.00;;;;;;;23.07;33.14;95835.38;5056005;28;20329;-68
2023/06/13 10:26:42;;;;;;;1.33;0.88;;;;;;;23.35;34.52;95835.72;5056684;28;20200;-73
2023/06/13 10:29:48;;;;;;;2.38;1.10;;;;;;;23.81;35.00;95833.97;5055344;28;20861;-68
2023/06/13 10:32:35;;;;;;;1.42;0.90;;;;;;;23.34;32.04;95836.00;5042046;28;21313;-71
2023/06/13 10:35:30;;;;;;;3.20;0.98;;;;;;;23.31;33.62;95831.97;5055798;28;20212;-69
2023/06/13 10:38:38;;;;;;;0.80;0.73;;;;;;;23.33;34.64;95831.69;5054700;28;20315;-71
2023/06/13 10:41:28;;;;;;;1.75;0.95;;;;;;;23.35;33.07;95841.09;5054533;28;20924;-74
2023/06/13 10:44:01;;;;;;;1.02;0.80;;;;;;;23.18;34.87;95831.66;5056251;28;20691;-70
2023/06/13 10:46:27;;;;;;;1.20;0.77;;;;;;;23.19;33.67;95827.88;5055973;28;20665;-68
2023/06/13 10:48:54;;;;;;;2.72;0.98;;;;;;;23.67;35.44;95820.19;5055753;28;20204;-67
2023/06/13 10:51:23;;;;;;;2.33;1.20;;;;;;;23.84;34.97;95823.47;5055231;28;20220;-69
2023/06/13 10:53:58;;;;;;;1.60;1.05;;;;;;;24.12;34.46;95828.28;5056377;28;20564;-68
2023/06/13 10:56:29;;;;;;;3.67;1.15;;;;;;;24.11;34.42;95827.50;5055527;28;20247;-71
2023/06/13 10:59:01;;;;;;;4.78;1.15;;;;;;;24.06;33.67;95824.00;5055041;28;20265;-68
2023/06/13 11:01:28;;;;;;;2.03;1.00;;;;;;;23.97;33.12;95828.31;5056370;28;20639;-66
2023/06/13 11:04:05;;;;;;;1.15;0.80;;;;;;;24.43;33.88;95829.94;5056074;28;20204;-68
2023/06/13 11:06:33;;;;;;;1.60;1.25;;;;;;;24.04;33.75;95816.22;5055815;28;20211;-71
2023/06/13 11:09:16;;;;;;;1.17;0.70;;;;;;;24.25;33.29;95812.41;5055032;28;20205;-68
2023/06/13 11:11:47;;;;;;;1.30;0.82;;;;;;;23.92;32.82;95805.97;5056383;28;20220;-70
2023/06/13 11:14:14;;;;;;;1.20;0.80;;;;;;;24.04;32.26;95807.31;5055740;28;20204;-68
2023/06/13 11:16:43;;;;;;;1.75;0.90;;;;;;;23.88;32.47;95802.19;5054668;28;20235;-68
2023/06/13 11:19:13;;;;;;;1.52;0.98;;;;;;;23.87;31.97;95803.25;5054576;28;20334;-69
2023/06/13 11:21:45;;;;;;;2.72;1.30;;;;;;;24.38;33.18;95809.19;5053845;28;20236;-69
2023/06/13 11:24:14;;;;;;;2.67;1.23;;;;;;;24.16;31.60;95813.22;5055186;28;20246;-66
2023/06/13 11:26:41;;;;;;;3.42;1.13;;;;;;;24.58;33.38;95806.44;5055993;28;20204;-72
2023/06/13 11:29:09;;;;;;;1.85;1.10;;;;;;;24.69;32.45;95803.44;5055253;28;20251;-71
2023/06/13 11:31:38;;;;;;;2.72;1.15;;;;;;;24.60;32.42;95802.41;5055558;28;20708;-67
2023/06/13 11:34:06;;;;;;;1.98;0.90;;;;;;;24.19;31.85;95794.63;5055088;28;20968;-66
2023/06/13 11:36:36;;;;;;;1.48;0.93;;;;;;;24.43;32.09;95798.41;5055307;28;20232;-66
2023/06/13 11:39:09;;;;;;;1.95;1.45;;;;;;;24.74;35.69;95795.31;5054787;28;20657;-67